Spirit Of Oceanus — C6PJ8 — position and weather

sailwx.info

Track history (hours):
 
Tides and Currents Weather Stations Pressure Air Temp Water Temp Dewpoint Dewpoint Depression Visibility Wind Speed Wind Dir Waves Ship Positions

Spirit Of Oceanus

Last reported at 2017-Jun-25 20:28 UTC. Time now 2017-Jun-25 20:35 UTC.
Position N 70°59' E 025°58'.

Type: Passenger vessel. MMSI: 309224000.

Date/timePositionNaut miles runAvg speedWind from/ knotsBaromVisibWave heightAir tempDewpointWater temp
2017-Jun-25 20:28N 70°59' E 025°58'0 0.0
2017-Jun-25 19:58N 70°59' E 025°58'0 0.0
2017-Jun-25 19:28N 70°59' E 025°58'0 0.0
2017-Jun-25 18:58N 70°59' E 025°58'0 0.0
2017-Jun-25 18:28N 70°59' E 025°58'0 0.0
2017-Jun-25 17:58N 70°59' E 025°58'0 0.2
2017-Jun-25 17:30N 70°59' E 025°58'4 8.3
2017-Jun-25 17:00N 70°56' E 025°47'5 9.5
2017-Jun-25 16:30N 70°56' E 025°33'5 9.8
2017-Jun-25 16:00N 70°59' E 025°22'5 9.2
2017-Jun-25 15:30N 70°59' E 025°08'5 9.6
2017-Jun-25 15:00N 70°60' E 024°53'1010.1
2017-Jun-25 14:00N 70°58' E 024°23'714.6
2017-Jun-25 13:30N 70°53' E 024°07'714.1
2017-Jun-25 13:00N 70°49' E 023°51'713.8
2017-Jun-25 12:30N 70°44' E 023°36'4 7.9
2017-Jun-25 11:58N 70°40' E 023°41'0 0.0
2017-Jun-25 11:28N 70°40' E 023°41'0 0.0
2017-Jun-25 10:58N 70°40' E 023°41'0 0.0
2017-Jun-25 10:28N 70°40' E 023°41'0 0.0
2017-Jun-25 09:58N 70°40' E 023°41'0 0.0
2017-Jun-25 09:28N 70°40' E 023°41'0 0.0
2017-Jun-25 08:58N 70°40' E 023°41'0 0.0
2017-Jun-25 08:28N 70°40' E 023°41'0 0.0
2017-Jun-25 07:58N 70°40' E 023°41'0 0.0
2017-Jun-25 07:28N 70°40' E 023°41'0 0.0
2017-Jun-25 06:58N 70°40' E 023°41'0 0.0
2017-Jun-25 06:28N 70°40' E 023°41'0 0.0
2017-Jun-25 05:58N 70°40' E 023°41'0 0.0
2017-Jun-25 05:28N 70°40' E 023°41'0 0.0
2017-Jun-25 04:58N 70°40' E 023°41'0 0.5
2017-Jun-25 04:30N 70°40' E 023°40'510.0
2017-Jun-25 04:00N 70°39' E 023°26'5 9.8
2017-Jun-25 03:30N 70°36' E 023°14'510.5
2017-Jun-25 03:00N 70°32' E 023°02'510.1
2017-Jun-25 02:30N 70°30' E 022°49'611.1
2017-Jun-25 02:00N 70°28' E 022°34'510.7
2017-Jun-25 01:30N 70°27' E 022°18'510.4
2017-Jun-25 01:00N 70°26' E 022°02'611.2
2017-Jun-25 00:29N 70°24' E 021°46'611.4
2017-Jun-25 00:00N 70°21' E 021°33'613.0
2017-Jun-24 23:30N 70°16' E 021°19'612.2
2017-Jun-24 23:00N 70°12' E 021°07'612.4
2017-Jun-24 22:30N 70°06' E 021°02'611.4
2017-Jun-24 22:00N 70°03' E 020°49'612.5
2017-Jun-24 21:29N 70°01' E 020°31'612.5
2017-Jun-24 21:00N 69°59' E 020°13'612.2
2017-Jun-24 20:29N 69°55' E 019°59'612.1
2017-Jun-24 19:59N 69°51' E 019°46'611.8
2017-Jun-24 19:30N 69°49' E 019°30'611.6
2017-Jun-24 19:00N 69°47' E 019°14'510.7
2017-Jun-24 18:30N 69°43' E 019°03'5 6.8
2017-Jun-24 17:47N 69°39' E 018°58'0 0.0
2017-Jun-24 17:26N 69°39' E 018°58'0 0.0
2017-Jun-24 16:59N 69°39' E 018°58'0 0.0
2017-Jun-24 16:29N 69°39' E 018°58'0 0.0
2017-Jun-24 15:59N 69°39' E 018°58'0 0.0
2017-Jun-24 15:26N 69°39' E 018°58'0 0.0
2017-Jun-24 14:59N 69°39' E 018°58'0 0.0
2017-Jun-24 13:59N 69°39' E 018°58'0 0.0
2017-Jun-24 13:23N 69°39' E 018°58'0 0.0
2017-Jun-24 12:59N 69°39' E 018°58'0 0.0
2017-Jun-24 12:29N 69°39' E 018°58'0 0.0
2017-Jun-24 11:59N 69°39' E 018°58'0 0.0
2017-Jun-24 11:29N 69°39' E 018°58'0 0.0
2017-Jun-24 10:59N 69°39' E 018°58'0 0.0
2017-Jun-24 10:26N 69°39' E 018°58'0 0.0
2017-Jun-24 09:53N 69°39' E 018°58'0 0.0
2017-Jun-24 09:29N 69°39' E 018°58'0 0.0
2017-Jun-24 08:59N 69°39' E 018°58'0 0.0
2017-Jun-24 08:29N 69°39' E 018°58'1 1.4
2017-Jun-24 07:59N 69°38' E 018°57'612.9
2017-Jun-24 07:30N 69°33' E 018°45'713.7
2017-Jun-24 07:00N 69°31' E 018°26'612.7
2017-Jun-24 06:30N 69°29' E 018°10'612.3
2017-Jun-24 06:01N 69°23' E 018°05'611.7
2017-Jun-24 05:30N 69°18' E 017°58'611.1
2017-Jun-24 04:59N 69°12' E 018°01'611.5
2017-Jun-24 04:30N 69°09' E 017°49'612.4
2017-Jun-24 04:00N 69°06' E 017°33'611.7
2017-Jun-24 03:30N 69°03' E 017°20'611.7
2017-Jun-24 03:00N 68°58' E 017°10'612.6
2017-Jun-24 02:30N 68°53' E 016°60'612.9
2017-Jun-24 02:00N 68°48' E 016°50'713.1
2017-Jun-24 01:30N 68°42' E 016°41'713.2
2017-Jun-24 01:00N 68°36' E 016°33'611.1
2017-Jun-24 00:29N 68°33' E 016°19'613.3
2017-Jun-24 00:00N 68°29' E 016°07'713.3
2017-Jun-23 23:30N 68°23' E 015°59'712.8
2017-Jun-23 23:00N 68°18' E 015°48'612.6
2017-Jun-23 22:30N 68°13' E 015°35'712.9
2017-Jun-23 22:00N 68°13' E 015°18'713.4
2017-Jun-23 21:29N 68°12' E 014°60'510.6
2017-Jun-23 21:00N 68°17' E 014°58'5 8.8
2017-Jun-23 20:29N 68°22' E 014°59'1 1.5
2017-Jun-23 20:00N 68°22' E 014°57'1 1.7
2017-Jun-23 19:30N 68°22' E 014°59'4 7.7
2017-Jun-23 19:00N 68°18' E 014°58'714.4
2017-Jun-23 18:30N 68°11' E 014°51'713.3
2017-Jun-23 18:00N 68°07' E 014°37'714.0
2017-Jun-23 17:30N 68°05' E 014°19'714.2
2017-Jun-23 17:00N 68°04' E 014°00'714.2
2017-Jun-23 16:30N 68°04' E 013°41'5 8.9
2017-Jun-23 15:59N 68°08' E 013°34'0 0.0
2017-Jun-23 15:29N 68°08' E 013°34'0 0.0
2017-Jun-23 14:59N 68°08' E 013°34'0 0.0
2017-Jun-23 13:59N 68°08' E 013°34'0 0.0
2017-Jun-23 13:29N 68°08' E 013°34'0 0.0
2017-Jun-23 12:59N 68°08' E 013°34'0 0.0
2017-Jun-23 12:29N 68°08' E 013°34'0 0.0
2017-Jun-23 11:59N 68°08' E 013°34'0 0.0
2017-Jun-23 11:29N 68°08' E 013°34'0 0.0
2017-Jun-23 10:59N 68°08' E 013°34'0 0.0
2017-Jun-23 10:29N 68°08' E 013°34'0 0.0
2017-Jun-23 09:59N 68°08' E 013°34'0 0.0
2017-Jun-23 09:29N 68°08' E 013°34'0 0.0
2017-Jun-23 08:59N 68°08' E 013°34'0 0.0
2017-Jun-23 08:29N 68°08' E 013°34'0 0.0
2017-Jun-23 07:59N 68°08' E 013°34'0 0.0
2017-Jun-23 07:29N 68°08' E 013°34'0 0.0
2017-Jun-23 06:59N 68°08' E 013°34'0 0.3
2017-Jun-23 06:30N 68°07' E 013°34'3 5.6
2017-Jun-23 06:00N 68°05' E 013°36'3 6.1
2017-Jun-23 05:30N 68°02' E 013°35'5 8.9
2017-Jun-23 05:00N 67°57' E 013°32'5 9.8
2017-Jun-23 04:30N 67°53' E 013°29'5 9.6
2017-Jun-23 04:00N 67°48' E 013°26'5 9.7
2017-Jun-23 03:30N 67°43' E 013°24'4 9.0
2017-Jun-23 03:00N 67°39' E 013°21'5 9.4
2017-Jun-23 02:30N 67°34' E 013°18'5 9.4
2017-Jun-23 02:00N 67°30' E 013°15'5 9.5
2017-Jun-23 01:30N 67°25' E 013°13'5 9.6
2017-Jun-23 01:00N 67°20' E 013°10'5 9.8
2017-Jun-23 00:30N 67°16' E 013°07'5 9.8
2017-Jun-23 00:00N 67°11' E 013°04'5 9.7
2017-Jun-22 23:30N 67°06' E 013°01'5 9.7
2017-Jun-22 23:00N 67°01' E 012°59'5 9.8
2017-Jun-22 22:30N 66°57' E 012°56'612.2
2017-Jun-22 22:00N 66°50' E 012°55'713.5
2017-Jun-22 21:30N 66°44' E 012°56'713.6
2017-Jun-22 21:00N 66°44' E 013°14'712.9
2017-Jun-22 20:30N 66°44' E 013°30'5 9.3
2017-Jun-22 19:57N 66°42' E 013°42'0 0.0
2017-Jun-22 19:30N 66°42' E 013°42'0 0.0
2017-Jun-22 19:00N 66°42' E 013°42'0 0.0
2017-Jun-22 18:30N 66°42' E 013°42'0 0.0
2017-Jun-22 17:57N 66°42' E 013°42'0 0.0
2017-Jun-22 17:30N 66°42' E 013°42'0 0.0
2017-Jun-22 16:57N 66°42' E 013°42'0 0.0
2017-Jun-22 16:27N 66°42' E 013°42'0 0.1
2017-Jun-22 16:00N 66°42' E 013°42'1 2.8
2017-Jun-22 15:29N 66°42' E 013°39'612.5
2017-Jun-22 15:00N 66°44' E 013°24'1010.3
2017-Jun-22 14:00N 66°35' E 013°10'510.3
2017-Jun-22 13:30N 66°33' E 013°22'4 8.7
2017-Jun-22 13:00N 66°33' E 013°33'611.9
2017-Jun-22 12:30N 66°33' E 013°18'713.1
2017-Jun-22 12:00N 66°33' E 013°02'4 8.8
2017-Jun-22 11:30N 66°29' E 012°60'611.2
2017-Jun-22 11:00N 66°23' E 012°58'510.1
2017-Jun-22 10:30N 66°20' E 012°49'611.1
2017-Jun-22 10:00N 66°16' E 012°38'510.6
2017-Jun-22 09:30N 66°15' E 012°25'4 8.7
2017-Jun-22 09:00N 66°17' E 012°15'4 8.9
2017-Jun-22 08:30N 66°17' E 012°04'4 8.5
2017-Jun-22 08:00N 66°17' E 011°53'  
Track history (hours):
 
Tides and Currents Weather Stations Pressure Air Temp Water Temp Dewpoint Dewpoint Depression Visibility Wind Speed Wind Dir Waves Ship Positions

Spirit Of Oceanus

Last reported at 2017-Jun-25 20:28 UTC. Time now 2017-Jun-25 20:35 UTC.
Position N 70°59' E 025°58'.

Type: Passenger vessel. MMSI: 309224000.

Date/timePositionNaut miles runAvg speedWind from/ knotsBaromVisibWave heightAir tempDewpointWater temp
2017-Jun-25 20:28N 70°59' E 025°58'0 0.0
2017-Jun-25 19:58N 70°59' E 025°58'0 0.0
2017-Jun-25 19:28N 70°59' E 025°58'0 0.0
2017-Jun-25 18:58N 70°59' E 025°58'0 0.0
2017-Jun-25 18:28N 70°59' E 025°58'0 0.0
2017-Jun-25 17:58N 70°59' E 025°58'0 0.2
2017-Jun-25 17:30N 70°59' E 025°58'4 8.3
2017-Jun-25 17:00N 70°56' E 025°47'5 9.5
2017-Jun-25 16:30N 70°56' E 025°33'5 9.8
2017-Jun-25 16:00N 70°59' E 025°22'5 9.2
2017-Jun-25 15:30N 70°59' E 025°08'5 9.6
2017-Jun-25 15:00N 70°60' E 024°53'1010.1
2017-Jun-25 14:00N 70°58' E 024°23'714.6
2017-Jun-25 13:30N 70°53' E 024°07'714.1
2017-Jun-25 13:00N 70°49' E 023°51'713.8
2017-Jun-25 12:30N 70°44' E 023°36'4 7.9
2017-Jun-25 11:58N 70°40' E 023°41'0 0.0
2017-Jun-25 11:28N 70°40' E 023°41'0 0.0
2017-Jun-25 10:58N 70°40' E 023°41'0 0.0
2017-Jun-25 10:28N 70°40' E 023°41'0 0.0
2017-Jun-25 09:58N 70°40' E 023°41'0 0.0
2017-Jun-25 09:28N 70°40' E 023°41'0 0.0
2017-Jun-25 08:58N 70°40' E 023°41'0 0.0
2017-Jun-25 08:28N 70°40' E 023°41'0 0.0
2017-Jun-25 07:58N 70°40' E 023°41'0 0.0
2017-Jun-25 07:28N 70°40' E 023°41'0 0.0
2017-Jun-25 06:58N 70°40' E 023°41'0 0.0
2017-Jun-25 06:28N 70°40' E 023°41'0 0.0
2017-Jun-25 05:58N 70°40' E 023°41'0 0.0
2017-Jun-25 05:28N 70°40' E 023°41'0 0.0
2017-Jun-25 04:58N 70°40' E 023°41'0 0.5
2017-Jun-25 04:30N 70°40' E 023°40'510.0
2017-Jun-25 04:00N 70°39' E 023°26'5 9.8
2017-Jun-25 03:30N 70°36' E 023°14'510.5
2017-Jun-25 03:00N 70°32' E 023°02'510.1
2017-Jun-25 02:30N 70°30' E 022°49'611.1
2017-Jun-25 02:00N 70°28' E 022°34'510.7
2017-Jun-25 01:30N 70°27' E 022°18'510.4
2017-Jun-25 01:00N 70°26' E 022°02'611.2
2017-Jun-25 00:29N 70°24' E 021°46'611.4
2017-Jun-25 00:00N 70°21' E 021°33'613.0
2017-Jun-24 23:30N 70°16' E 021°19'612.2
2017-Jun-24 23:00N 70°12' E 021°07'612.4
2017-Jun-24 22:30N 70°06' E 021°02'611.4
2017-Jun-24 22:00N 70°03' E 020°49'612.5
2017-Jun-24 21:29N 70°01' E 020°31'612.5
2017-Jun-24 21:00N 69°59' E 020°13'612.2
2017-Jun-24 20:29N 69°55' E 019°59'612.1
2017-Jun-24 19:59N 69°51' E 019°46'611.8
2017-Jun-24 19:30N 69°49' E 019°30'611.6
2017-Jun-24 19:00N 69°47' E 019°14'510.7
2017-Jun-24 18:30N 69°43' E 019°03'5 6.8
2017-Jun-24 17:47N 69°39' E 018°58'0 0.0
2017-Jun-24 17:26N 69°39' E 018°58'0 0.0
2017-Jun-24 16:59N 69°39' E 018°58'0 0.0
2017-Jun-24 16:29N 69°39' E 018°58'0 0.0
2017-Jun-24 15:59N 69°39' E 018°58'0 0.0
2017-Jun-24 15:26N 69°39' E 018°58'0 0.0
2017-Jun-24 14:59N 69°39' E 018°58'0 0.0
2017-Jun-24 13:59N 69°39' E 018°58'0 0.0
2017-Jun-24 13:23N 69°39' E 018°58'0 0.0
2017-Jun-24 12:59N 69°39' E 018°58'0 0.0
2017-Jun-24 12:29N 69°39' E 018°58'0 0.0
2017-Jun-24 11:59N 69°39' E 018°58'0 0.0
2017-Jun-24 11:29N 69°39' E 018°58'0 0.0
2017-Jun-24 10:59N 69°39' E 018°58'0 0.0
2017-Jun-24 10:26N 69°39' E 018°58'0 0.0
2017-Jun-24 09:53N 69°39' E 018°58'0 0.0
2017-Jun-24 09:29N 69°39' E 018°58'0 0.0
2017-Jun-24 08:59N 69°39' E 018°58'0 0.0
2017-Jun-24 08:29N 69°39' E 018°58'1 1.4
2017-Jun-24 07:59N 69°38' E 018°57'612.9
2017-Jun-24 07:30N 69°33' E 018°45'713.7
2017-Jun-24 07:00N 69°31' E 018°26'612.7
2017-Jun-24 06:30N 69°29' E 018°10'612.3
2017-Jun-24 06:01N 69°23' E 018°05'611.7
2017-Jun-24 05:30N 69°18' E 017°58'611.1
2017-Jun-24 04:59N 69°12' E 018°01'611.5
2017-Jun-24 04:30N 69°09' E 017°49'612.4
2017-Jun-24 04:00N 69°06' E 017°33'611.7
2017-Jun-24 03:30N 69°03' E 017°20'611.7
2017-Jun-24 03:00N 68°58' E 017°10'612.6
2017-Jun-24 02:30N 68°53' E 016°60'612.9
2017-Jun-24 02:00N 68°48' E 016°50'713.1
2017-Jun-24 01:30N 68°42' E 016°41'713.2
2017-Jun-24 01:00N 68°36' E 016°33'611.1
2017-Jun-24 00:29N 68°33' E 016°19'613.3
2017-Jun-24 00:00N 68°29' E 016°07'713.3
2017-Jun-23 23:30N 68°23' E 015°59'712.8
2017-Jun-23 23:00N 68°18' E 015°48'612.6
2017-Jun-23 22:30N 68°13' E 015°35'712.9
2017-Jun-23 22:00N 68°13' E 015°18'713.4
2017-Jun-23 21:29N 68°12' E 014°60'510.6
2017-Jun-23 21:00N 68°17' E 014°58'5 8.8
2017-Jun-23 20:29N 68°22' E 014°59'1 1.5
2017-Jun-23 20:00N 68°22' E 014°57'1 1.7
2017-Jun-23 19:30N 68°22' E 014°59'4 7.7
2017-Jun-23 19:00N 68°18' E 014°58'714.4
2017-Jun-23 18:30N 68°11' E 014°51'713.3
2017-Jun-23 18:00N 68°07' E 014°37'714.0
2017-Jun-23 17:30N 68°05' E 014°19'714.2
2017-Jun-23 17:00N 68°04' E 014°00'714.2
2017-Jun-23 16:30N 68°04' E 013°41'5 8.9
2017-Jun-23 15:59N 68°08' E 013°34'0 0.0
2017-Jun-23 15:29N 68°08' E 013°34'0 0.0
2017-Jun-23 14:59N 68°08' E 013°34'0 0.0
2017-Jun-23 13:59N 68°08' E 013°34'0 0.0
2017-Jun-23 13:29N 68°08' E 013°34'0 0.0
2017-Jun-23 12:59N 68°08' E 013°34'0 0.0
2017-Jun-23 12:29N 68°08' E 013°34'0 0.0
2017-Jun-23 11:59N 68°08' E 013°34'0 0.0
2017-Jun-23 11:29N 68°08' E 013°34'0 0.0
2017-Jun-23 10:59N 68°08' E 013°34'0 0.0
2017-Jun-23 10:29N 68°08' E 013°34'0 0.0
2017-Jun-23 09:59N 68°08' E 013°34'0 0.0
2017-Jun-23 09:29N 68°08' E 013°34'0 0.0
2017-Jun-23 08:59N 68°08' E 013°34'0 0.0
2017-Jun-23 08:29N 68°08' E 013°34'0 0.0
2017-Jun-23 07:59N 68°08' E 013°34'0 0.0
2017-Jun-23 07:29N 68°08' E 013°34'0 0.0
2017-Jun-23 06:59N 68°08' E 013°34'0 0.3
2017-Jun-23 06:30N 68°07' E 013°34'3 5.6
2017-Jun-23 06:00N 68°05' E 013°36'3 6.1
2017-Jun-23 05:30N 68°02' E 013°35'5 8.9
2017-Jun-23 05:00N 67°57' E 013°32'5 9.8
2017-Jun-23 04:30N 67°53' E 013°29'5 9.6
2017-Jun-23 04:00N 67°48' E 013°26'5 9.7
2017-Jun-23 03:30N 67°43' E 013°24'4 9.0
2017-Jun-23 03:00N 67°39' E 013°21'5 9.4
2017-Jun-23 02:30N 67°34' E 013°18'5 9.4
2017-Jun-23 02:00N 67°30' E 013°15'5 9.5
2017-Jun-23 01:30N 67°25' E 013°13'5 9.6
2017-Jun-23 01:00N 67°20' E 013°10'5 9.8
2017-Jun-23 00:30N 67°16' E 013°07'5 9.8
2017-Jun-23 00:00N 67°11' E 013°04'5 9.7
2017-Jun-22 23:30N 67°06' E 013°01'5 9.7
2017-Jun-22 23:00N 67°01' E 012°59'5 9.8
2017-Jun-22 22:30N 66°57' E 012°56'612.2
2017-Jun-22 22:00N 66°50' E 012°55'713.5
2017-Jun-22 21:30N 66°44' E 012°56'713.6
2017-Jun-22 21:00N 66°44' E 013°14'712.9
2017-Jun-22 20:30N 66°44' E 013°30'5 9.3
2017-Jun-22 19:57N 66°42' E 013°42'0 0.0
2017-Jun-22 19:30N 66°42' E 013°42'0 0.0
2017-Jun-22 19:00N 66°42' E 013°42'0 0.0
2017-Jun-22 18:30N 66°42' E 013°42'0 0.0
2017-Jun-22 17:57N 66°42' E 013°42'0 0.0
2017-Jun-22 17:30N 66°42' E 013°42'0 0.0
2017-Jun-22 16:57N 66°42' E 013°42'0 0.0
2017-Jun-22 16:27N 66°42' E 013°42'0 0.1
2017-Jun-22 16:00N 66°42' E 013°42'1 2.8
2017-Jun-22 15:29N 66°42' E 013°39'612.5
2017-Jun-22 15:00N 66°44' E 013°24'1010.3
2017-Jun-22 14:00N 66°35' E 013°10'510.3
2017-Jun-22 13:30N 66°33' E 013°22'4 8.7
2017-Jun-22 13:00N 66°33' E 013°33'611.9
2017-Jun-22 12:30N 66°33' E 013°18'713.1
2017-Jun-22 12:00N 66°33' E 013°02'4 8.8
2017-Jun-22 11:30N 66°29' E 012°60'611.2
2017-Jun-22 11:00N 66°23' E 012°58'510.1
2017-Jun-22 10:30N 66°20' E 012°49'611.1
2017-Jun-22 10:00N 66°16' E 012°38'510.6
2017-Jun-22 09:30N 66°15' E 012°25'4 8.7
2017-Jun-22 09:00N 66°17' E 012°15'4 8.9
2017-Jun-22 08:30N 66°17' E 012°04'4 8.5
2017-Jun-22 08:00N 66°17' E 011°53'  

Dump ship's entire track history